Главная страница
METAR-TAF:

METAR-TAF

Аэропорты :

Векшё, Швеция

широта: 56-51N, долгота: 014-50E, высота над уровнем моря: 199 м

Текущие метеонаблюдения

Эта сводка был подготовлена 44 минут назад, в 19:20 UTC
Ветер 3 Узел от западный-юго-западный
Температура 17°C
Влажность 77%
Давление 1012 hPa
Видимость 10 км и более
Нет облачности ниже 1500 м, и нет кучево-дождевой облачности

METAR: ESMX 251920Z 24003KT CAVOK 17/13 Q1012

Время: 22:04 (20:04 UTC)

Прогноз

Эта сводка был подготовлена 2 часа и 34 минут назад, в 17:30 UTC
Прогноз действительный с 25-го 18 UTC до 26-го 01 UTC
Ветер 7 Узел от западный-юго-западный
Видимость 10 км и более
Нет облачности ниже 1500 м, и нет кучево-дождевой облачности
временами
С 25-го 22 UTC до 26-го 01 UTC
Видимость: 0500 м
туман,

TAF: ESMX 251730Z 2518/2601 25007KT CAVOK TEMPO 2522/2601 0500 FG

Метеонаблюдения и прогнозы для более 4000 аэропортов (сводки METAR и TAF).

Имеющиеся станции представлены на карте желтыми и красными точками.

Чтобы увидеть название станции, наведите на нее мышь.

Затем щелкните, чтобы увидеть метеонаблюдения и метеопрогнозы.

Управление картой: чтобы увеличить масштаб, щелкните зеленые кнопки с черным крестиком; чтобы уменьшить масштаб, щелкните зеленую кнопку с тире; для просмотра соседних карт щелкайте зеленые стрелки.


METAR-TAF: